createdAt,value
2023-05-14T00:02:25.624Z,14.60
2023-05-14T00:04:53.955Z,14.70
2023-05-14T00:07:21.101Z,14.70
2023-05-14T00:09:47.851Z,14.60
2023-05-14T00:12:15.033Z,14.60
2023-05-14T00:14:41.843Z,14.50
2023-05-14T00:17:09.034Z,14.50
2023-05-14T00:19:36.053Z,14.40
2023-05-14T00:22:04.689Z,14.40
2023-05-14T00:24:31.528Z,14.30
2023-05-14T00:26:58.853Z,14.40
2023-05-14T00:29:25.698Z,14.30
2023-05-14T00:31:53.055Z,14.30
2023-05-14T00:34:20.114Z,14.30
2023-05-14T00:36:47.316Z,14.30
2023-05-14T00:39:15.544Z,14.30
2023-05-14T00:41:42.666Z,14.20
2023-05-14T00:44:09.751Z,14.20
2023-05-14T00:46:36.753Z,14.10
2023-05-14T00:49:04.151Z,14.10
2023-05-14T00:51:31.598Z,14.00
2023-05-14T00:53:58.572Z,13.90
2023-05-14T00:56:28.133Z,13.80
2023-05-14T00:58:54.971Z,13.80
2023-05-14T01:01:22.317Z,13.80
2023-05-14T01:03:49.548Z,13.70
2023-05-14T01:06:23.617Z,13.60
2023-05-14T01:08:58.113Z,13.50
2023-05-14T01:11:30.297Z,13.50
2023-05-14T01:14:06.820Z,13.40
2023-05-14T01:16:36.246Z,13.40
2023-05-14T01:19:07.727Z,13.30
2023-05-14T01:21:38.329Z,13.30
2023-05-14T01:24:05.742Z,13.30
2023-05-14T01:26:33.056Z,13.30
2023-05-14T01:29:06.275Z,13.30
2023-05-14T01:31:37.827Z,13.20
2023-05-14T01:34:06.170Z,13.20
2023-05-14T01:36:34.025Z,13.20
2023-05-14T01:39:03.916Z,13.30
2023-05-14T01:41:31.841Z,13.30
2023-05-14T01:43:59.097Z,13.30
2023-05-14T01:46:25.967Z,13.30
2023-05-14T01:48:53.078Z,13.20
2023-05-14T01:51:19.930Z,13.20
2023-05-14T01:53:47.145Z,13.10
2023-05-14T01:56:15.438Z,13.10
2023-05-14T01:58:42.640Z,13.10
2023-05-14T02:01:09.441Z,13.10
2023-05-14T02:03:36.600Z,13.00
2023-05-14T02:06:03.465Z,12.90
2023-05-14T02:08:30.670Z,12.70
2023-05-14T02:10:57.426Z,12.60
2023-05-14T02:13:26.664Z,12.50
2023-05-14T02:15:53.556Z,12.40
2023-05-14T02:18:20.805Z,12.40
2023-05-14T02:20:47.571Z,12.30
2023-05-14T02:23:14.361Z,12.30
2023-05-14T02:25:41.379Z,12.20
2023-05-14T02:28:08.224Z,12.20
2023-05-14T02:30:36.601Z,12.10
2023-05-14T02:33:03.624Z,12.20
2023-05-14T02:35:30.714Z,12.20
2023-05-14T02:37:57.467Z,12.20
2023-05-14T02:40:24.683Z,12.30
2023-05-14T02:42:51.632Z,12.20
2023-05-14T02:45:18.986Z,12.20
2023-05-14T02:47:47.637Z,12.20
2023-05-14T02:50:14.866Z,12.20
2023-05-14T02:52:41.646Z,12.10
2023-05-14T02:55:09.871Z,12.10
2023-05-14T02:57:36.615Z,12.00
2023-05-14T03:00:04.285Z,11.80
2023-05-14T03:02:31.754Z,11.80
2023-05-14T03:05:00.831Z,11.70
2023-05-14T03:07:27.678Z,11.60
2023-05-14T03:09:54.939Z,11.60
2023-05-14T03:12:21.844Z,11.60
2023-05-14T03:14:49.050Z,11.60
2023-05-14T03:17:15.794Z,11.50
2023-05-14T03:19:42.958Z,11.50
2023-05-14T03:22:11.192Z,11.60
2023-05-14T03:24:40.603Z,11.70
2023-05-14T03:27:07.427Z,11.70
2023-05-14T03:29:34.711Z,11.80
2023-05-14T03:32:01.534Z,11.80
2023-05-14T03:34:28.788Z,11.80
2023-05-14T03:36:55.621Z,11.80
2023-05-14T03:39:24.048Z,11.90
2023-05-14T03:41:51.262Z,11.80
2023-05-14T03:44:18.518Z,11.80
2023-05-14T03:46:45.533Z,11.80
2023-05-14T03:49:12.708Z,11.80
2023-05-14T03:51:39.531Z,11.80
2023-05-14T03:54:07.828Z,11.80
2023-05-14T03:56:36.003Z,11.80
2023-05-14T03:59:03.145Z,11.70
2023-05-14T04:01:30.004Z,11.60
2023-05-14T04:03:57.200Z,11.60
2023-05-14T04:06:24.076Z,11.60
2023-05-14T04:08:51.269Z,11.50
2023-05-14T04:11:18.029Z,11.60
2023-05-14T04:13:46.677Z,11.60
2023-05-14T04:16:13.488Z,11.60
2023-05-14T04:18:41.046Z,11.70
2023-05-14T04:21:07.925Z,11.70
2023-05-14T04:23:35.121Z,11.70
2023-05-14T04:26:01.943Z,11.80
2023-05-14T04:28:29.069Z,11.80
2023-05-14T04:30:57.191Z,11.80
2023-05-14T04:33:24.421Z,11.90
2023-05-14T04:35:53.454Z,12.00
2023-05-14T04:38:20.691Z,12.00
2023-05-14T04:40:47.472Z,12.00
2023-05-14T04:43:14.722Z,12.10
2023-05-14T04:45:41.528Z,12.10
2023-05-14T04:48:10.198Z,12.10
2023-05-14T04:50:37.040Z,12.20
2023-05-14T04:53:04.138Z,12.30
2023-05-14T04:55:31.024Z,12.30
2023-05-14T04:57:58.188Z,12.30
2023-05-14T05:00:25.712Z,12.40
2023-05-14T05:02:53.185Z,12.50
2023-05-14T05:05:21.656Z,12.60
2023-05-14T05:07:48.829Z,12.70
2023-05-14T05:10:15.968Z,12.80
2023-05-14T05:12:43.295Z,12.80
2023-05-14T05:15:10.676Z,12.90
2023-05-14T05:17:38.150Z,13.00
2023-05-14T05:20:09.564Z,13.00
2023-05-14T05:22:38.316Z,13.00
2023-05-14T05:25:06.364Z,13.10
2023-05-14T05:27:33.721Z,13.20
2023-05-14T05:30:01.682Z,13.30
2023-05-14T05:32:28.845Z,13.40
2023-05-14T05:34:55.750Z,13.50
2023-05-14T05:37:23.040Z,13.60
2023-05-14T05:39:51.125Z,13.60
2023-05-14T05:42:18.194Z,13.70
2023-05-14T05:44:45.047Z,13.70
2023-05-14T05:47:12.191Z,13.80
2023-05-14T05:49:38.973Z,13.80
2023-05-14T05:52:06.253Z,13.90
2023-05-14T05:54:33.114Z,13.90
2023-05-14T05:57:01.578Z,14.00
2023-05-14T05:59:28.392Z,14.00
2023-05-14T06:01:55.851Z,14.00
2023-05-14T06:04:22.621Z,13.90
2023-05-14T06:06:49.743Z,13.90
2023-05-14T06:09:16.519Z,13.90
2023-05-14T06:11:43.708Z,13.90
2023-05-14T06:14:11.876Z,13.90
2023-05-14T06:16:39.186Z,14.00
2023-05-14T06:19:06.415Z,14.10
2023-05-14T06:21:33.729Z,14.20
2023-05-14T06:24:00.608Z,14.40
2023-05-14T06:26:27.736Z,14.50
2023-05-14T06:28:54.706Z,14.60
2023-05-14T06:31:23.275Z,14.70
2023-05-14T06:33:50.011Z,14.80
2023-05-14T06:36:17.023Z,14.80
2023-05-14T06:38:43.779Z,14.70
2023-05-14T06:41:10.950Z,14.70
2023-05-14T06:43:37.756Z,14.60
2023-05-14T06:46:04.960Z,14.50
2023-05-14T06:48:33.172Z,14.40
2023-05-14T06:51:00.375Z,14.40
2023-05-14T06:53:27.392Z,14.30
2023-05-14T06:55:54.641Z,14.30
2023-05-14T06:58:21.461Z,14.30
2023-05-14T07:00:48.778Z,14.30
2023-05-14T07:03:15.639Z,14.40
2023-05-14T07:05:46.342Z,14.40
2023-05-14T07:08:13.219Z,14.50
2023-05-14T07:10:40.566Z,14.70
2023-05-14T07:13:08.285Z,14.90
2023-05-14T07:15:35.451Z,15.20
2023-05-14T07:18:02.304Z,15.50
2023-05-14T07:20:29.551Z,15.70
2023-05-14T07:22:57.716Z,15.90
2023-05-14T07:25:26.391Z,16.10
2023-05-14T07:27:53.138Z,16.30
2023-05-14T07:30:20.494Z,16.40
2023-05-14T07:32:47.342Z,16.50
2023-05-14T07:35:14.720Z,16.60
2023-05-14T07:37:42.855Z,16.70
2023-05-14T07:40:11.843Z,16.70
2023-05-14T07:42:38.736Z,16.80
2023-05-14T07:45:06.908Z,16.80
2023-05-14T07:47:33.776Z,16.80
2023-05-14T07:50:00.755Z,17.00
2023-05-14T07:52:27.956Z,17.10
2023-05-14T07:54:55.043Z,17.10
2023-05-14T07:57:23.592Z,17.10
2023-05-14T07:59:50.389Z,17.00
2023-05-14T08:02:17.903Z,17.00
2023-05-14T08:04:44.880Z,17.00
2023-05-14T08:07:12.378Z,17.20
2023-05-14T08:09:39.311Z,17.20
2023-05-14T08:12:07.495Z,17.30
2023-05-14T08:14:35.897Z,17.40
2023-05-14T08:17:03.928Z,17.50
2023-05-14T08:19:30.835Z,17.50
2023-05-14T08:21:57.960Z,17.40
2023-05-14T08:24:24.856Z,17.40
2023-05-14T08:26:52.695Z,17.60
2023-05-14T08:29:19.562Z,17.70
2023-05-14T08:31:49.765Z,17.80
2023-05-14T08:34:16.568Z,17.90
2023-05-14T08:36:43.726Z,18.00
2023-05-14T08:39:10.648Z,18.20
2023-05-14T08:41:38.019Z,18.30
2023-05-14T08:44:10.655Z,18.40
2023-05-14T08:46:39.392Z,18.40
2023-05-14T08:49:16.763Z,18.70
2023-05-14T08:51:44.770Z,18.60
2023-05-14T08:54:16.782Z,18.70
2023-05-14T08:56:46.102Z,18.80
2023-05-14T08:59:13.150Z,18.90
2023-05-14T09:01:47.845Z,19.10
2023-05-14T09:04:20.589Z,19.30
2023-05-14T09:06:49.633Z,19.50
2023-05-14T09:09:16.829Z,19.60
2023-05-14T09:11:46.344Z,19.60
2023-05-14T09:14:13.223Z,19.80
2023-05-14T09:16:42.968Z,20.00
2023-05-14T09:19:09.943Z,20.10
2023-05-14T09:21:38.437Z,20.20
2023-05-14T09:24:05.572Z,20.20
2023-05-14T09:26:34.086Z,20.20
2023-05-14T09:29:02.071Z,20.40
2023-05-14T09:31:31.064Z,20.40
2023-05-14T09:33:58.745Z,20.30
2023-05-14T09:36:27.458Z,20.40
2023-05-14T09:38:56.726Z,20.60
2023-05-14T09:41:24.789Z,20.60
2023-05-14T09:43:51.974Z,20.70
2023-05-14T09:46:19.094Z,20.80
2023-05-14T09:48:46.089Z,20.90
2023-05-14T09:51:13.916Z,21.00
2023-05-14T09:53:41.625Z,21.00
2023-05-14T09:56:10.391Z,21.20
2023-05-14T09:58:37.274Z,21.50
2023-05-14T10:01:06.284Z,21.60
2023-05-14T10:03:33.541Z,21.60
2023-05-14T10:06:05.178Z,21.60
2023-05-14T10:08:35.251Z,21.60
2023-05-14T10:11:07.101Z,21.60
2023-05-14T10:13:39.403Z,21.60
2023-05-14T10:16:11.816Z,21.60
2023-05-14T10:18:42.828Z,21.70
2023-05-14T10:21:11.746Z,21.70
2023-05-14T10:23:39.079Z,21.50
2023-05-14T10:26:06.786Z,21.40
2023-05-14T10:28:35.525Z,21.40
2023-05-14T10:31:02.790Z,21.30
2023-05-14T10:33:29.864Z,21.30
2023-05-14T10:36:00.097Z,21.40
2023-05-14T10:38:28.457Z,21.40
2023-05-14T10:41:03.946Z,21.60
2023-05-14T10:43:35.811Z,21.70
2023-05-14T10:46:05.004Z,21.70
2023-05-14T10:48:32.822Z,21.60
2023-05-14T10:51:00.999Z,21.60
2023-05-14T10:53:33.443Z,21.60
2023-05-14T10:56:04.775Z,21.60
2023-05-14T10:58:33.773Z,21.70
2023-05-14T11:01:01.720Z,21.70
2023-05-14T11:03:33.799Z,21.80
2023-05-14T11:06:04.276Z,21.70
2023-05-14T11:08:32.471Z,21.50
2023-05-14T11:11:00.783Z,21.40
2023-05-14T11:13:27.861Z,21.50
2023-05-14T11:15:56.008Z,21.60
2023-05-14T11:18:29.829Z,21.70
2023-05-14T11:21:00.780Z,21.90
2023-05-14T11:23:28.009Z,22.00
2023-05-14T11:25:56.966Z,22.20
2023-05-14T11:28:26.263Z,22.50
2023-05-14T11:30:54.330Z,22.50
2023-05-14T11:33:21.368Z,22.70
2023-05-14T11:35:48.964Z,23.00
2023-05-14T11:38:18.367Z,23.60
2023-05-14T11:40:53.276Z,23.60
2023-05-14T11:43:20.499Z,24.10
2023-05-14T11:45:51.261Z,24.70
2023-05-14T11:48:18.861Z,24.50
2023-05-14T11:50:47.728Z,24.60
2023-05-14T11:53:19.081Z,25.30
2023-05-14T11:55:47.913Z,25.20
2023-05-14T11:58:15.884Z,24.50
2023-05-14T12:00:45.113Z,23.80
2023-05-14T12:03:12.252Z,23.40
2023-05-14T12:05:40.429Z,23.10
2023-05-14T12:08:21.476Z,22.80
2023-05-14T12:10:49.108Z,22.30
2023-05-14T12:13:17.328Z,22.10
2023-05-14T12:15:54.693Z,22.00
2023-05-14T12:18:24.974Z,21.90
2023-05-14T12:20:52.473Z,21.70
2023-05-14T12:23:26.980Z,21.70
2023-05-14T12:25:54.236Z,21.70
2023-05-14T12:28:23.039Z,21.70
2023-05-14T12:30:56.943Z,21.80
2023-05-14T12:33:23.916Z,21.90
2023-05-14T12:35:51.001Z,21.90
2023-05-14T12:38:17.837Z,21.80
2023-05-14T12:40:46.379Z,21.70
2023-05-14T12:43:13.195Z,21.80
2023-05-14T12:45:40.325Z,21.70
2023-05-14T12:48:07.271Z,21.80
2023-05-14T12:50:34.586Z,22.00
2023-05-14T12:53:01.571Z,22.50
2023-05-14T12:55:28.762Z,22.80
2023-05-14T12:57:57.704Z,23.30
2023-05-14T13:00:25.295Z,23.80
2023-05-14T13:02:52.329Z,24.40
2023-05-14T13:05:19.588Z,24.80
2023-05-14T13:07:46.373Z,25.20
2023-05-14T13:10:13.628Z,26.00
2023-05-14T13:12:40.534Z,26.40
2023-05-14T13:15:10.295Z,26.50
2023-05-14T13:17:37.141Z,25.70
2023-05-14T13:20:05.100Z,25.00
2023-05-14T13:22:31.916Z,24.50
2023-05-14T13:24:59.007Z,24.00
2023-05-14T13:27:26.289Z,23.60
2023-05-14T13:29:53.172Z,23.60
2023-05-14T13:32:21.638Z,23.80
2023-05-14T13:34:48.404Z,24.00
2023-05-14T13:37:15.839Z,23.90
2023-05-14T13:39:42.612Z,23.90
2023-05-14T13:42:09.761Z,23.70
2023-05-14T13:44:36.741Z,23.40
2023-05-14T13:47:04.237Z,24.10
2023-05-14T13:49:32.437Z,26.10
2023-05-14T13:51:59.589Z,28.20
2023-05-14T13:54:26.467Z,30.10
2023-05-14T13:56:53.563Z,31.70
2023-05-14T13:59:20.984Z,32.30
2023-05-14T14:01:49.998Z,32.10
2023-05-14T14:04:17.623Z,30.90
2023-05-14T14:06:46.090Z,29.80
2023-05-14T14:09:13.763Z,29.10
2023-05-14T14:11:41.527Z,28.10
2023-05-14T14:14:08.344Z,27.00
2023-05-14T14:16:35.759Z,26.00
2023-05-14T14:19:02.663Z,25.20
2023-05-14T14:21:29.879Z,24.60
2023-05-14T14:23:58.050Z,24.00
2023-05-14T14:26:25.169Z,23.60
2023-05-14T14:28:51.944Z,23.30
2023-05-14T14:31:19.183Z,23.00
2023-05-14T14:33:46.195Z,22.80
2023-05-14T14:36:13.983Z,22.70
2023-05-14T14:38:40.820Z,22.70
2023-05-14T14:41:10.454Z,22.70
2023-05-14T14:43:38.147Z,22.80
2023-05-14T14:46:05.659Z,22.50
2023-05-14T14:48:39.925Z,22.40
2023-05-14T14:51:08.411Z,22.30
2023-05-14T14:53:37.391Z,22.20
2023-05-14T14:56:04.587Z,22.30
2023-05-14T14:58:32.991Z,22.30
2023-05-14T15:01:01.448Z,22.30
2023-05-14T15:03:28.944Z,22.40
2023-05-14T15:05:56.405Z,22.50
2023-05-14T15:08:26.696Z,22.40
2023-05-14T15:10:53.771Z,22.40
2023-05-14T15:13:20.708Z,22.60
2023-05-14T15:15:51.193Z,22.70
2023-05-14T15:18:18.209Z,22.60
2023-05-14T15:20:45.347Z,22.50
2023-05-14T15:23:12.200Z,22.50
2023-05-14T15:25:39.535Z,22.50
2023-05-14T15:28:07.454Z,22.40
2023-05-14T15:30:34.780Z,22.40
2023-05-14T15:33:03.132Z,22.40
2023-05-14T15:35:30.562Z,22.30
2023-05-14T15:37:57.457Z,22.50
2023-05-14T15:40:24.857Z,23.70
2023-05-14T15:42:51.831Z,24.30
2023-05-14T15:45:19.121Z,24.60
2023-05-14T15:47:46.019Z,25.60
2023-05-14T15:50:14.597Z,26.80
2023-05-14T15:52:41.624Z,27.80
2023-05-14T15:55:09.637Z,28.70
2023-05-14T15:57:36.892Z,29.00
2023-05-14T16:00:11.324Z,29.00
2023-05-14T16:02:39.010Z,29.40
2023-05-14T16:05:08.782Z,29.60
2023-05-14T16:07:37.367Z,29.70
2023-05-14T16:10:05.966Z,30.00
2023-05-14T16:12:32.835Z,29.30
2023-05-14T16:15:00.322Z,27.70
2023-05-14T16:17:27.857Z,27.40
2023-05-14T16:19:56.255Z,26.80
2023-05-14T16:22:23.512Z,26.70
2023-05-14T16:24:52.039Z,26.80
2023-05-14T16:27:19.160Z,27.30
2023-05-14T16:29:46.461Z,27.30
2023-05-14T16:32:13.513Z,27.60
2023-05-14T16:34:40.945Z,27.70
2023-05-14T16:37:08.058Z,28.00
2023-05-14T16:39:35.005Z,28.70
2023-05-14T16:42:03.366Z,29.20
2023-05-14T16:44:30.413Z,29.60
2023-05-14T16:46:57.213Z,28.80
2023-05-14T16:49:24.413Z,27.70
2023-05-14T16:51:51.222Z,26.30
2023-05-14T16:54:18.079Z,25.30
2023-05-14T16:56:48.239Z,24.50
2023-05-14T16:59:17.404Z,23.80
2023-05-14T17:01:44.655Z,23.30
2023-05-14T17:04:11.901Z,22.90
2023-05-14T17:06:38.798Z,22.60
2023-05-14T17:09:07.276Z,22.30
2023-05-14T17:11:34.095Z,22.20
2023-05-14T17:14:01.262Z,22.00
2023-05-14T17:16:29.497Z,21.80
2023-05-14T17:18:56.729Z,21.70
2023-05-14T17:21:23.646Z,21.60
2023-05-14T17:23:50.944Z,21.50
2023-05-14T17:26:17.735Z,21.40
2023-05-14T17:28:44.562Z,21.20
2023-05-14T17:31:11.376Z,21.00
2023-05-14T17:33:39.971Z,20.90
2023-05-14T17:36:07.312Z,20.70
2023-05-14T17:38:34.657Z,20.50
2023-05-14T17:41:02.057Z,20.40
2023-05-14T17:43:29.332Z,20.30
2023-05-14T17:45:56.281Z,20.20
2023-05-14T17:48:23.958Z,20.10
2023-05-14T17:50:52.267Z,20.00
2023-05-14T17:53:19.453Z,19.90
2023-05-14T17:55:46.406Z,20.00
2023-05-14T17:58:15.251Z,19.80
2023-05-14T18:00:43.748Z,19.70
2023-05-14T18:03:14.104Z,19.60
2023-05-14T18:05:41.077Z,19.50
2023-05-14T18:08:09.635Z,19.40
2023-05-14T18:10:36.587Z,19.30
2023-05-14T18:13:03.733Z,19.30
2023-05-14T18:15:31.446Z,19.20
2023-05-14T18:17:58.256Z,19.10
2023-05-14T18:20:25.001Z,19.00
2023-05-14T18:22:52.549Z,19.00
2023-05-14T18:25:20.732Z,18.90
2023-05-14T18:27:47.919Z,18.70
2023-05-14T18:30:15.943Z,18.60
2023-05-14T18:32:44.180Z,18.50
2023-05-14T18:35:12.026Z,18.40
2023-05-14T18:37:39.124Z,18.30
2023-05-14T18:40:07.704Z,18.30
2023-05-14T18:42:35.892Z,18.20
2023-05-14T18:45:04.328Z,18.30
2023-05-14T18:47:31.408Z,18.10
2023-05-14T18:50:00.334Z,18.10
2023-05-14T18:52:27.384Z,18.00
2023-05-14T18:54:54.894Z,17.90
2023-05-14T18:57:22.296Z,17.80
2023-05-14T18:59:50.558Z,17.70
2023-05-14T19:02:17.510Z,17.70
2023-05-14T19:04:52.217Z,17.60
2023-05-14T19:07:20.273Z,17.50
2023-05-14T19:09:47.138Z,17.50
2023-05-14T19:12:14.371Z,17.40
2023-05-14T19:14:41.244Z,17.40
2023-05-14T19:17:09.498Z,17.30
2023-05-14T19:19:37.502Z,17.30
2023-05-14T19:22:04.579Z,17.30
2023-05-14T19:24:31.742Z,17.30
2023-05-14T19:26:58.950Z,17.30
2023-05-14T19:29:26.104Z,17.20
2023-05-14T19:31:53.305Z,17.20
2023-05-14T19:34:22.298Z,17.20
2023-05-14T19:36:49.586Z,17.20
2023-05-14T19:39:16.823Z,17.30
2023-05-14T19:41:43.671Z,17.40
2023-05-14T19:44:10.817Z,17.20
2023-05-14T19:46:37.769Z,17.20
2023-05-14T19:49:04.976Z,17.20
2023-05-14T19:51:33.095Z,17.20
2023-05-14T19:53:59.872Z,17.20
2023-05-14T19:56:27.373Z,17.10
2023-05-14T19:58:54.282Z,17.10
2023-05-14T20:01:21.217Z,17.10
2023-05-14T20:03:48.154Z,17.10
2023-05-14T20:06:15.107Z,17.10
2023-05-14T20:08:45.136Z,17.10
2023-05-14T20:11:12.037Z,17.10
2023-05-14T20:13:38.832Z,17.10
2023-05-14T20:16:07.115Z,17.10
2023-05-14T20:18:34.360Z,17.10
2023-05-14T20:21:01.243Z,17.00
2023-05-14T20:23:28.292Z,17.00
2023-05-14T20:25:56.866Z,17.00
2023-05-14T20:28:23.624Z,16.90
2023-05-14T20:30:50.448Z,16.90
2023-05-14T20:33:17.390Z,16.80
2023-05-14T20:35:44.365Z,16.80
2023-05-14T20:38:12.591Z,16.70
2023-05-14T20:40:40.153Z,16.70
2023-05-14T20:43:09.962Z,16.60
2023-05-14T20:45:36.921Z,16.50
2023-05-14T20:48:09.780Z,16.50
2023-05-14T20:50:36.859Z,16.50
2023-05-14T20:53:04.137Z,16.40
2023-05-14T20:55:31.253Z,16.40
2023-05-14T20:57:58.163Z,16.50
2023-05-14T21:00:26.748Z,16.40
2023-05-14T21:02:53.621Z,16.40
2023-05-14T21:05:21.263Z,16.30
2023-05-14T21:07:48.152Z,16.30
2023-05-14T21:10:15.314Z,16.30
2023-05-14T21:12:43.483Z,16.20
2023-05-14T21:15:12.288Z,16.20
2023-05-14T21:17:40.529Z,16.10
2023-05-14T21:20:08.467Z,16.20
2023-05-14T21:22:35.227Z,16.20
2023-05-14T21:25:02.312Z,16.20
2023-05-14T21:27:29.132Z,16.20
2023-05-14T21:29:55.911Z,16.10
2023-05-14T21:32:23.835Z,16.10
2023-05-14T21:34:52.126Z,16.10
2023-05-14T21:37:19.581Z,16.00
2023-05-14T21:39:46.434Z,15.90
2023-05-14T21:42:13.604Z,15.90
2023-05-14T21:44:40.606Z,15.90
2023-05-14T21:47:08.001Z,15.80
2023-05-14T21:49:35.501Z,15.80
2023-05-14T21:52:04.818Z,15.80
2023-05-14T21:54:31.668Z,15.80
2023-05-14T21:56:58.917Z,15.80
2023-05-14T21:59:25.772Z,15.80
2023-05-14T22:02:06.265Z,15.80
2023-05-14T22:04:34.129Z,15.80
2023-05-14T22:07:01.871Z,15.80
2023-05-14T22:09:30.414Z,15.70
2023-05-14T22:11:57.616Z,15.70
2023-05-14T22:14:26.385Z,15.70
2023-05-14T22:16:53.929Z,15.60
2023-05-14T22:19:21.423Z,15.60
2023-05-14T22:21:48.557Z,15.50
2023-05-14T22:24:15.403Z,15.50
2023-05-14T22:26:44.271Z,15.40
2023-05-14T22:29:11.111Z,15.50
2023-05-14T22:31:38.364Z,15.50
2023-05-14T22:34:05.218Z,15.50
2023-05-14T22:36:32.259Z,15.50
2023-05-14T22:38:58.985Z,15.50
2023-05-14T22:41:26.955Z,15.50
2023-05-14T22:43:54.991Z,15.60
2023-05-14T22:46:22.442Z,15.60
2023-05-14T22:48:49.309Z,15.60
2023-05-14T22:51:16.848Z,15.60
2023-05-14T22:53:43.651Z,15.60
2023-05-14T22:56:11.028Z,15.50
2023-05-14T22:58:37.887Z,15.50
2023-05-14T23:01:06.388Z,15.40
2023-05-14T23:03:33.159Z,15.40
2023-05-14T23:06:00.257Z,15.40
2023-05-14T23:08:27.053Z,15.50
2023-05-14T23:10:54.179Z,15.70
2023-05-14T23:13:21.075Z,15.40
2023-05-14T23:15:49.073Z,15.30
2023-05-14T23:18:17.311Z,15.20
2023-05-14T23:20:44.440Z,15.20
2023-05-14T23:23:11.300Z,15.10
2023-05-14T23:25:38.155Z,15.20
2023-05-14T23:28:05.241Z,15.20
2023-05-14T23:30:32.274Z,15.10
2023-05-14T23:32:59.091Z,15.20
2023-05-14T23:35:27.746Z,15.20
2023-05-14T23:37:55.166Z,15.20
2023-05-14T23:40:22.355Z,15.20
2023-05-14T23:42:49.176Z,15.20
2023-05-14T23:45:16.321Z,15.10
2023-05-14T23:47:43.220Z,15.10
2023-05-14T23:50:10.651Z,15.10
2023-05-14T23:52:38.737Z,15.10
2023-05-14T23:55:06.855Z,15.00
2023-05-14T23:57:33.795Z,15.00
